createdAt,value
2023-05-10T00:00:16.422Z,0.00
2023-05-10T00:01:16.271Z,0.00
2023-05-10T00:02:16.272Z,0.00
2023-05-10T00:03:16.367Z,0.00
2023-05-10T00:04:16.237Z,0.00
2023-05-10T00:05:16.240Z,0.00
2023-05-10T00:06:16.186Z,0.00
2023-05-10T00:07:16.189Z,0.00
2023-05-10T00:08:16.159Z,0.00
2023-05-10T00:09:16.167Z,0.00
2023-05-10T00:10:16.418Z,0.00
2023-05-10T00:11:16.178Z,0.00
2023-05-10T00:12:16.125Z,0.00
2023-05-10T00:13:16.179Z,0.00
2023-05-10T00:14:16.104Z,0.00
2023-05-10T00:15:16.118Z,0.00
2023-05-10T00:16:16.098Z,0.00
2023-05-10T00:17:16.087Z,0.00
2023-05-10T00:18:16.056Z,0.00
2023-05-10T00:19:16.116Z,0.00
2023-05-10T00:20:16.401Z,0.00
2023-05-10T00:21:16.038Z,0.00
2023-05-10T00:22:16.006Z,0.00
2023-05-10T00:23:16.037Z,0.00
2023-05-10T00:24:16.008Z,0.00
2023-05-10T00:25:16.022Z,0.00
2023-05-10T00:26:15.967Z,0.00
2023-05-10T00:27:15.986Z,0.00
2023-05-10T00:28:15.941Z,0.00
2023-05-10T00:29:16.065Z,0.00
2023-05-10T00:30:16.290Z,0.00
2023-05-10T00:31:15.957Z,0.00
2023-05-10T00:32:16.015Z,0.00
2023-05-10T00:33:15.918Z,0.00
2023-05-10T00:34:15.882Z,0.00
2023-05-10T00:35:15.885Z,0.00
2023-05-10T00:36:15.864Z,0.00
2023-05-10T00:37:15.894Z,0.00
2023-05-10T00:38:15.872Z,0.00
2023-05-10T00:39:15.859Z,0.00
2023-05-10T00:40:16.059Z,0.00
2023-05-10T00:41:15.842Z,0.00
2023-05-10T00:42:15.801Z,0.00
2023-05-10T00:43:15.839Z,0.00
2023-05-10T00:44:15.844Z,0.00
2023-05-10T00:45:15.834Z,0.00
2023-05-10T00:46:15.914Z,0.00
2023-05-10T00:47:15.831Z,0.00
2023-05-10T00:48:15.729Z,0.00
2023-05-10T00:49:15.823Z,0.00
2023-05-10T00:50:15.968Z,0.00
2023-05-10T00:51:15.706Z,0.00
2023-05-10T00:52:15.681Z,0.00
2023-05-10T00:53:15.717Z,0.00
2023-05-10T00:54:15.657Z,0.00
2023-05-10T00:55:15.674Z,0.00
2023-05-10T00:56:15.656Z,0.00
2023-05-10T00:57:15.655Z,0.00
2023-05-10T00:58:15.613Z,0.00
2023-05-10T00:59:15.651Z,0.00
2023-05-10T01:00:15.884Z,0.00
2023-05-10T01:01:15.661Z,0.00
2023-05-10T01:02:15.611Z,0.00
2023-05-10T01:03:15.665Z,0.00
2023-05-10T01:04:15.563Z,0.00
2023-05-10T01:05:15.579Z,0.00
2023-05-10T01:06:15.530Z,0.00
2023-05-10T01:07:15.533Z,0.00
2023-05-10T01:08:15.519Z,0.00
2023-05-10T01:09:15.498Z,0.00
2023-05-10T01:10:15.675Z,0.00
2023-05-10T01:11:15.477Z,0.00
2023-05-10T01:12:15.506Z,0.00
2023-05-10T01:13:15.473Z,0.00
2023-05-10T01:14:15.488Z,0.00
2023-05-10T01:15:15.436Z,0.00
2023-05-10T01:16:15.479Z,0.00
2023-05-10T01:17:15.411Z,0.00
2023-05-10T01:18:15.416Z,0.00
2023-05-10T01:19:15.386Z,0.00
2023-05-10T01:20:15.644Z,0.00
2023-05-10T01:21:15.381Z,0.00
2023-05-10T01:22:15.372Z,0.00
2023-05-10T01:23:15.346Z,0.00
2023-05-10T01:24:15.349Z,0.00
2023-05-10T01:25:15.351Z,0.00
2023-05-10T01:26:15.347Z,0.00
2023-05-10T01:27:15.302Z,0.00
2023-05-10T01:28:15.321Z,0.00
2023-05-10T01:29:15.276Z,0.00
2023-05-10T01:30:16.264Z,0.00
2023-05-10T01:31:15.306Z,0.00
2023-05-10T01:32:15.280Z,0.00
2023-05-10T01:33:15.238Z,0.00
2023-05-10T01:34:15.257Z,0.00
2023-05-10T01:35:15.215Z,0.00
2023-05-10T01:36:15.250Z,0.00
2023-05-10T01:37:15.191Z,0.00
2023-05-10T01:38:15.211Z,0.00
2023-05-10T01:39:15.172Z,0.00
2023-05-10T01:40:15.290Z,0.00
2023-05-10T01:41:15.161Z,0.00
2023-05-10T01:42:15.150Z,0.00
2023-05-10T01:43:15.129Z,0.00
2023-05-10T01:44:15.143Z,0.00
2023-05-10T01:45:15.100Z,0.00
2023-05-10T01:46:15.149Z,0.00
2023-05-10T01:47:15.082Z,0.00
2023-05-10T01:48:15.114Z,0.00
2023-05-10T01:49:15.085Z,0.00
2023-05-10T01:50:15.225Z,0.00
2023-05-10T01:51:15.045Z,0.00
2023-05-10T01:52:15.057Z,0.00
2023-05-10T01:53:15.014Z,0.00
2023-05-10T01:54:15.021Z,0.00
2023-05-10T01:55:15.030Z,0.00
2023-05-10T01:56:15.002Z,0.00
2023-05-10T01:57:14.969Z,0.00
2023-05-10T01:58:14.984Z,0.00
2023-05-10T01:59:14.946Z,0.00
2023-05-10T02:00:15.220Z,0.00
2023-05-10T02:01:14.948Z,0.00
2023-05-10T02:02:14.937Z,0.00
2023-05-10T02:03:15.048Z,0.00
2023-05-10T02:04:14.928Z,0.00
2023-05-10T02:05:14.907Z,0.00
2023-05-10T02:06:14.905Z,0.00
2023-05-10T02:07:14.857Z,0.00
2023-05-10T02:08:14.885Z,0.00
2023-05-10T02:09:14.849Z,0.00
2023-05-10T02:10:15.037Z,0.00
2023-05-10T02:11:14.818Z,0.00
2023-05-10T02:12:14.825Z,0.00
2023-05-10T02:13:14.861Z,0.00
2023-05-10T02:14:14.806Z,0.00
2023-05-10T02:15:14.772Z,0.00
2023-05-10T02:16:14.800Z,0.00
2023-05-10T02:17:14.765Z,0.00
2023-05-10T02:18:14.773Z,0.00
2023-05-10T02:19:14.754Z,0.00
2023-05-10T02:20:14.991Z,0.00
2023-05-10T02:21:14.706Z,0.00
2023-05-10T02:22:14.735Z,0.00
2023-05-10T02:23:14.687Z,0.00
2023-05-10T02:24:14.709Z,0.00
2023-05-10T02:25:14.672Z,0.00
2023-05-10T02:26:14.679Z,0.00
2023-05-10T02:27:14.641Z,0.00
2023-05-10T02:28:14.654Z,0.00
2023-05-10T02:29:14.618Z,0.00
2023-05-10T02:30:14.814Z,0.00
2023-05-10T02:31:14.613Z,0.00
2023-05-10T02:32:14.691Z,0.00
2023-05-10T02:33:14.581Z,0.00
2023-05-10T02:34:14.603Z,0.00
2023-05-10T02:35:14.551Z,0.00
2023-05-10T02:36:14.565Z,0.00
2023-05-10T02:37:14.533Z,0.00
2023-05-10T02:38:14.551Z,0.00
2023-05-10T02:39:14.524Z,0.00
2023-05-10T02:40:14.592Z,0.00
2023-05-10T02:41:14.490Z,0.00
2023-05-10T02:42:14.511Z,0.00
2023-05-10T02:43:14.480Z,0.00
2023-05-10T02:44:14.490Z,0.00
2023-05-10T02:45:14.463Z,0.00
2023-05-10T02:46:14.515Z,0.00
2023-05-10T02:47:14.427Z,0.00
2023-05-10T02:48:14.471Z,0.00
2023-05-10T02:49:14.412Z,0.00
2023-05-10T02:50:14.522Z,0.00
2023-05-10T02:51:14.405Z,0.00
2023-05-10T02:52:14.387Z,0.00
2023-05-10T02:53:14.360Z,0.00
2023-05-10T02:54:14.365Z,0.00
2023-05-10T02:55:14.346Z,0.00
2023-05-10T02:56:14.384Z,0.00
2023-05-10T02:57:14.332Z,0.00
2023-05-10T02:58:14.359Z,0.00
2023-05-10T02:59:14.293Z,0.00
2023-05-10T03:00:14.540Z,0.00
2023-05-10T03:01:14.305Z,0.00
2023-05-10T03:02:14.289Z,0.00
2023-05-10T03:03:14.266Z,0.00
2023-05-10T03:04:14.334Z,0.00
2023-05-10T03:05:14.228Z,0.00
2023-05-10T03:06:14.232Z,0.00
2023-05-10T03:07:14.204Z,0.00
2023-05-10T03:08:14.218Z,0.00
2023-05-10T03:09:14.190Z,0.00
2023-05-10T03:10:14.519Z,0.00
2023-05-10T03:11:14.176Z,0.00
2023-05-10T03:12:14.192Z,0.00
2023-05-10T03:13:14.235Z,0.00
2023-05-10T03:14:14.102Z,1.00
2023-05-10T03:15:14.119Z,0.00
2023-05-10T03:16:14.172Z,0.00
2023-05-10T03:17:14.073Z,1.00
2023-05-10T03:18:14.049Z,1.00
2023-05-10T03:19:14.035Z,1.00
2023-05-10T03:20:14.154Z,1.00
2023-05-10T03:21:14.055Z,0.00
2023-05-10T03:22:14.079Z,0.00
2023-05-10T03:23:14.002Z,2.00
2023-05-10T03:24:14.011Z,1.00
2023-05-10T03:25:13.979Z,1.00
2023-05-10T03:26:14.031Z,0.00
2023-05-10T03:27:13.989Z,0.00
2023-05-10T03:28:14.012Z,0.00
2023-05-10T03:29:13.926Z,1.00
2023-05-10T03:30:14.044Z,1.00
2023-05-10T03:31:13.922Z,5.00
2023-05-10T03:32:13.908Z,1.00
2023-05-10T03:33:13.869Z,1.00
2023-05-10T03:34:13.868Z,2.00
2023-05-10T03:35:13.867Z,2.00
2023-05-10T03:36:13.876Z,3.00
2023-05-10T03:37:13.834Z,3.00
2023-05-10T03:38:13.844Z,4.00
2023-05-10T03:39:13.802Z,4.00
2023-05-10T03:40:13.836Z,4.00
2023-05-10T03:41:13.801Z,3.00
2023-05-10T03:42:13.804Z,3.00
2023-05-10T03:43:13.770Z,3.00
2023-05-10T03:44:13.811Z,4.00
2023-05-10T03:45:13.752Z,4.00
2023-05-10T03:46:13.814Z,4.00
2023-05-10T03:47:13.743Z,7.00
2023-05-10T03:48:13.829Z,4.00
2023-05-10T03:49:13.696Z,7.00
2023-05-10T03:50:13.709Z,3.00
2023-05-10T03:51:13.677Z,4.00
2023-05-10T03:52:13.705Z,6.00
2023-05-10T03:53:13.654Z,9.00
2023-05-10T03:54:13.669Z,10.00
2023-05-10T03:55:13.652Z,12.00
2023-05-10T03:56:13.681Z,11.00
2023-05-10T03:57:13.634Z,14.00
2023-05-10T03:58:13.655Z,12.00
2023-05-10T03:59:13.598Z,12.00
2023-05-10T04:00:13.715Z,14.00
2023-05-10T04:01:13.567Z,14.00
2023-05-10T04:02:13.603Z,17.00
2023-05-10T04:03:13.651Z,18.00
2023-05-10T04:04:13.689Z,18.00
2023-05-10T04:05:13.565Z,20.00
2023-05-10T04:06:13.547Z,21.00
2023-05-10T04:07:13.500Z,21.00
2023-05-10T04:08:13.540Z,22.00
2023-05-10T04:09:13.509Z,24.00
2023-05-10T04:10:13.499Z,26.00
2023-05-10T04:11:13.452Z,27.00
2023-05-10T04:12:13.503Z,30.00
2023-05-10T04:13:13.478Z,31.00
2023-05-10T04:14:13.469Z,33.00
2023-05-10T04:15:13.411Z,38.00
2023-05-10T04:16:13.435Z,40.00
2023-05-10T04:17:13.506Z,34.00
2023-05-10T04:18:13.400Z,35.00
2023-05-10T04:19:13.379Z,37.00
2023-05-10T04:20:13.371Z,41.00
2023-05-10T04:21:13.344Z,39.00
2023-05-10T04:22:13.395Z,40.00
2023-05-10T04:23:13.320Z,46.00
2023-05-10T04:24:13.638Z,52.00
2023-05-10T04:25:13.312Z,40.00
2023-05-10T04:26:13.304Z,39.00
2023-05-10T04:27:13.292Z,42.00
2023-05-10T04:28:13.298Z,45.00
2023-05-10T04:29:13.259Z,51.00
2023-05-10T04:30:13.278Z,52.00
2023-05-10T04:31:13.306Z,51.00
2023-05-10T04:32:13.251Z,49.00
2023-05-10T04:33:13.217Z,51.00
2023-05-10T04:34:13.232Z,50.00
2023-05-10T04:35:13.217Z,51.00
2023-05-10T04:36:13.237Z,53.00
2023-05-10T04:37:13.181Z,57.00
2023-05-10T04:38:13.188Z,61.00
2023-05-10T04:39:13.148Z,64.00
2023-05-10T04:40:13.164Z,69.00
2023-05-10T04:41:13.128Z,76.00
2023-05-10T04:42:13.128Z,80.00
2023-05-10T04:43:13.101Z,72.00
2023-05-10T04:44:13.111Z,76.00
2023-05-10T04:45:13.081Z,76.00
2023-05-10T04:46:13.107Z,76.00
2023-05-10T04:47:13.059Z,81.00
2023-05-10T04:48:13.085Z,84.00
2023-05-10T04:49:13.037Z,89.00
2023-05-10T04:50:13.067Z,91.00
2023-05-10T04:51:13.022Z,98.00
2023-05-10T04:52:13.054Z,106.00
2023-05-10T04:53:14.621Z,111.00
2023-05-10T04:54:13.006Z,122.00
2023-05-10T04:55:12.978Z,133.00
2023-05-10T04:56:12.990Z,137.00
2023-05-10T04:57:12.972Z,126.00
2023-05-10T04:58:12.985Z,105.00
2023-05-10T04:59:12.937Z,111.00
2023-05-10T05:00:12.938Z,142.00
2023-05-10T05:01:12.941Z,130.00
2023-05-10T05:02:12.918Z,129.00
2023-05-10T05:03:12.966Z,163.00
2023-05-10T05:04:12.896Z,118.00
2023-05-10T05:05:12.870Z,122.00
2023-05-10T05:06:12.885Z,159.00
2023-05-10T05:07:12.842Z,167.00
2023-05-10T05:08:12.893Z,121.00
2023-05-10T05:09:12.825Z,121.00
2023-05-10T05:10:12.860Z,138.00
2023-05-10T05:11:12.806Z,157.00
2023-05-10T05:12:12.808Z,158.00
2023-05-10T05:13:12.795Z,123.00
2023-05-10T05:14:12.800Z,121.00
2023-05-10T05:15:12.756Z,126.00
2023-05-10T05:16:12.819Z,134.00
2023-05-10T05:17:12.737Z,142.00
2023-05-10T05:18:12.764Z,149.00
2023-05-10T05:19:12.725Z,176.00
2023-05-10T05:20:12.724Z,203.00
2023-05-10T05:21:12.696Z,214.00
2023-05-10T05:22:12.693Z,162.00
2023-05-10T05:23:12.672Z,143.00
2023-05-10T05:24:12.679Z,151.00
2023-05-10T05:25:12.695Z,158.00
2023-05-10T05:26:12.633Z,190.00
2023-05-10T05:27:12.647Z,176.00
2023-05-10T05:28:12.620Z,178.00
2023-05-10T05:29:12.645Z,229.00
2023-05-10T05:30:12.592Z,179.00
2023-05-10T05:31:12.624Z,200.00
2023-05-10T05:32:12.605Z,232.00
2023-05-10T05:33:12.655Z,245.00
2023-05-10T05:34:12.545Z,251.00
2023-05-10T05:35:12.578Z,266.00
2023-05-10T05:36:12.529Z,249.00
2023-05-10T05:37:12.531Z,251.00
2023-05-10T05:38:12.507Z,262.00
2023-05-10T05:39:12.613Z,257.00
2023-05-10T05:40:12.479Z,286.00
2023-05-10T05:41:12.485Z,252.00
2023-05-10T05:42:12.451Z,273.00
2023-05-10T05:43:12.477Z,280.00
2023-05-10T05:44:12.433Z,254.00
2023-05-10T05:45:12.471Z,228.00
2023-05-10T05:46:12.478Z,241.00
2023-05-10T05:47:12.432Z,271.00
2023-05-10T05:48:12.393Z,320.00
2023-05-10T05:49:12.427Z,297.00
2023-05-10T05:50:12.368Z,290.00
2023-05-10T05:51:12.420Z,329.00
2023-05-10T05:52:12.347Z,316.00
2023-05-10T05:53:12.376Z,341.00
2023-05-10T05:54:12.322Z,314.00
2023-05-10T05:55:12.321Z,328.00
2023-05-10T05:56:12.309Z,298.00
2023-05-10T05:57:12.323Z,317.00
2023-05-10T05:58:12.323Z,351.00
2023-05-10T05:59:12.303Z,362.00
2023-05-10T06:00:12.261Z,381.00
2023-05-10T06:01:12.289Z,386.00
2023-05-10T06:02:12.277Z,394.00
2023-05-10T06:03:13.379Z,424.00
2023-05-10T06:04:12.324Z,398.00
2023-05-10T06:05:12.222Z,391.00
2023-05-10T06:06:12.242Z,413.00
2023-05-10T06:07:12.223Z,415.00
2023-05-10T06:08:12.298Z,359.00
2023-05-10T06:09:12.175Z,391.00
2023-05-10T06:10:12.146Z,438.00
2023-05-10T06:11:12.167Z,394.00
2023-05-10T06:12:12.129Z,368.00
2023-05-10T06:13:12.217Z,425.00
2023-05-10T06:14:12.466Z,469.00
2023-05-10T06:15:12.593Z,432.00
2023-05-10T06:16:12.133Z,386.00
2023-05-10T06:17:12.134Z,403.00
2023-05-10T06:18:12.133Z,389.00
2023-05-10T06:19:12.113Z,430.00
2023-05-10T06:20:12.044Z,404.00
2023-05-10T06:21:12.061Z,277.00
2023-05-10T06:22:12.062Z,259.00
2023-05-10T06:23:12.058Z,356.00
2023-05-10T06:24:12.014Z,345.00
2023-05-10T06:25:12.016Z,326.00
2023-05-10T06:26:11.982Z,318.00
2023-05-10T06:27:12.005Z,281.00
2023-05-10T06:28:12.053Z,305.00
2023-05-10T06:29:11.977Z,307.00
2023-05-10T06:30:13.491Z,303.00
2023-05-10T06:31:11.990Z,253.00
2023-05-10T06:32:11.928Z,267.00
2023-05-10T06:33:11.936Z,271.00
2023-05-10T06:34:11.883Z,257.00
2023-05-10T06:35:11.929Z,239.00
2023-05-10T06:36:11.862Z,255.00
2023-05-10T06:37:11.882Z,272.00
2023-05-10T06:38:11.846Z,365.00
2023-05-10T06:39:11.849Z,272.00
2023-05-10T06:40:11.823Z,291.00
2023-05-10T06:41:11.845Z,336.00
2023-05-10T06:42:11.800Z,386.00
2023-05-10T06:43:11.839Z,551.00
2023-05-10T06:44:11.792Z,403.00
2023-05-10T06:45:11.800Z,427.00
2023-05-10T06:46:11.797Z,502.00
2023-05-10T06:47:11.755Z,527.00
2023-05-10T06:48:11.757Z,510.00
2023-05-10T06:49:11.754Z,502.00
2023-05-10T06:50:11.707Z,577.00
2023-05-10T06:51:11.740Z,727.00
2023-05-10T06:52:11.701Z,586.00
2023-05-10T06:53:11.694Z,777.00
2023-05-10T06:54:11.673Z,790.00
2023-05-10T06:55:11.686Z,802.00
2023-05-10T06:56:11.649Z,874.00
2023-05-10T06:57:23.388Z,885.00
2023-05-10T06:58:11.637Z,598.00
2023-05-10T06:59:11.696Z,657.00
2023-05-10T07:00:11.656Z,1264.00
2023-05-10T07:01:11.793Z,848.00
2023-05-10T07:02:11.676Z,768.00
2023-05-10T07:03:11.659Z,748.00
2023-05-10T07:04:11.562Z,724.00
2023-05-10T07:05:11.574Z,798.00
2023-05-10T07:06:21.641Z,951.00
2023-05-10T07:07:11.551Z,922.00
2023-05-10T07:08:11.538Z,1192.00
2023-05-10T07:09:11.549Z,1456.00
2023-05-10T07:10:11.518Z,1571.00
2023-05-10T07:11:11.534Z,1454.00
2023-05-10T07:12:13.469Z,1194.00
2023-05-10T07:13:11.586Z,1157.00
2023-05-10T07:14:11.447Z,926.00
2023-05-10T07:15:11.473Z,725.00
2023-05-10T07:16:11.522Z,809.00
2023-05-10T07:17:11.505Z,554.00
2023-05-10T07:18:11.500Z,570.00
2023-05-10T07:19:11.430Z,653.00
2023-05-10T07:20:12.099Z,978.00
2023-05-10T07:21:11.458Z,1071.00
2023-05-10T07:22:11.374Z,679.00
2023-05-10T07:23:12.007Z,673.00
2023-05-10T07:24:11.958Z,780.00
2023-05-10T07:25:11.372Z,956.00
2023-05-10T07:26:11.333Z,1144.00
2023-05-10T07:27:11.363Z,1142.00
2023-05-10T07:28:11.308Z,1075.00
2023-05-10T07:29:11.314Z,1072.00
2023-05-10T07:30:11.305Z,858.00
2023-05-10T07:31:11.296Z,569.00
2023-05-10T07:32:11.286Z,491.00
2023-05-10T07:33:11.323Z,642.00
2023-05-10T07:34:11.230Z,881.00
2023-05-10T07:35:11.261Z,871.00
2023-05-10T07:36:11.223Z,879.00
2023-05-10T07:37:11.295Z,697.00
2023-05-10T07:38:11.186Z,323.00
2023-05-10T07:39:12.721Z,333.00
2023-05-10T07:40:11.164Z,474.00
2023-05-10T07:41:11.278Z,552.00
2023-05-10T07:42:11.981Z,441.00
2023-05-10T07:43:11.149Z,298.00
2023-05-10T07:44:11.113Z,434.00
2023-05-10T07:45:11.134Z,525.00
2023-05-10T07:46:11.229Z,403.00
2023-05-10T07:47:11.101Z,335.00
2023-05-10T07:48:11.073Z,252.00
2023-05-10T07:49:11.079Z,235.00
2023-05-10T07:50:11.063Z,292.00
2023-05-10T07:51:11.069Z,321.00
2023-05-10T07:52:11.040Z,245.00
2023-05-10T07:53:11.038Z,275.00
2023-05-10T07:54:11.010Z,334.00
2023-05-10T07:55:11.033Z,486.00
2023-05-10T07:56:11.000Z,557.00
2023-05-10T07:57:10.999Z,521.00
2023-05-10T07:58:10.966Z,530.00
2023-05-10T07:59:12.657Z,360.00
2023-05-10T08:00:10.950Z,323.00
2023-05-10T08:01:10.966Z,353.00
2023-05-10T08:02:10.974Z,418.00
2023-05-10T08:03:11.115Z,397.00
2023-05-10T08:04:10.955Z,446.00
2023-05-10T08:05:10.919Z,519.00
2023-05-10T08:06:10.880Z,586.00
2023-05-10T08:07:10.897Z,737.00
2023-05-10T08:08:10.854Z,1008.00
2023-05-10T08:09:10.890Z,1165.00
2023-05-10T08:10:10.833Z,1116.00
2023-05-10T08:11:10.838Z,796.00
2023-05-10T08:12:10.820Z,619.00
2023-05-10T08:13:10.912Z,587.00
2023-05-10T08:14:10.814Z,704.00
2023-05-10T08:15:10.811Z,435.00
2023-05-10T08:16:10.817Z,339.00
2023-05-10T08:17:10.808Z,387.00
2023-05-10T08:18:10.787Z,443.00
2023-05-10T08:19:10.847Z,489.00
2023-05-10T08:20:11.228Z,525.00
2023-05-10T08:21:10.725Z,566.00
2023-05-10T08:22:10.701Z,656.00
2023-05-10T08:23:10.707Z,718.00
2023-05-10T08:24:10.689Z,938.00
2023-05-10T08:25:10.698Z,780.00
2023-05-10T08:26:10.654Z,815.00
2023-05-10T08:27:10.682Z,873.00
2023-05-10T08:28:11.847Z,978.00
2023-05-10T08:29:10.651Z,1059.00
2023-05-10T08:30:10.625Z,1070.00
2023-05-10T08:31:10.660Z,994.00
2023-05-10T08:32:10.590Z,920.00
2023-05-10T08:33:10.646Z,839.00
2023-05-10T08:34:10.569Z,989.00
2023-05-10T08:35:10.573Z,1189.00
2023-05-10T08:36:10.553Z,1058.00
2023-05-10T08:37:10.572Z,942.00
2023-05-10T08:38:10.519Z,865.00
2023-05-10T08:39:22.888Z,945.00
2023-05-10T08:40:10.503Z,1116.00
2023-05-10T08:41:10.524Z,1198.00
2023-05-10T08:42:10.480Z,983.00
2023-05-10T08:43:10.509Z,1062.00
2023-05-10T08:44:10.456Z,1277.00
2023-05-10T08:45:10.469Z,1078.00
2023-05-10T08:46:10.485Z,872.00
2023-05-10T08:47:10.489Z,674.00
2023-05-10T08:48:10.477Z,740.00
2023-05-10T08:49:10.443Z,958.00
2023-05-10T08:50:10.472Z,1016.00
2023-05-10T08:51:10.426Z,984.00
2023-05-10T08:52:10.370Z,714.00
2023-05-10T08:53:10.401Z,507.00
2023-05-10T08:54:10.348Z,527.00
2023-05-10T08:55:10.374Z,649.00
2023-05-10T08:56:10.344Z,789.00
2023-05-10T08:57:10.359Z,786.00
2023-05-10T08:58:10.310Z,651.00
2023-05-10T08:59:10.310Z,492.00
2023-05-10T09:00:10.281Z,463.00
2023-05-10T09:01:10.320Z,456.00
2023-05-10T09:02:10.269Z,499.00
2023-05-10T09:03:10.310Z,586.00
2023-05-10T09:04:10.343Z,707.00
2023-05-10T09:05:10.292Z,812.00
2023-05-10T09:06:10.221Z,1027.00
2023-05-10T09:07:10.238Z,1177.00
2023-05-10T09:08:10.208Z,1962.00
2023-05-10T09:09:10.214Z,1618.00
2023-05-10T09:10:10.196Z,829.00
2023-05-10T09:11:10.174Z,566.00
2023-05-10T09:12:10.148Z,900.00
2023-05-10T09:13:10.167Z,960.00
2023-05-10T09:14:10.124Z,776.00
2023-05-10T09:15:10.175Z,676.00
2023-05-10T09:16:21.233Z,636.00
2023-05-10T09:17:10.173Z,699.00
2023-05-10T09:18:10.202Z,699.00
2023-05-10T09:19:10.120Z,615.00
2023-05-10T09:20:10.061Z,530.00
2023-05-10T09:21:10.077Z,502.00
2023-05-10T09:22:10.033Z,429.00
2023-05-10T09:23:10.042Z,383.00
2023-05-10T09:24:10.016Z,454.00
2023-05-10T09:25:10.039Z,528.00
2023-05-10T09:26:09.993Z,543.00
2023-05-10T09:27:10.015Z,448.00
2023-05-10T09:28:09.966Z,352.00
2023-05-10T09:29:09.974Z,213.00
2023-05-10T09:30:09.951Z,215.00
2023-05-10T09:31:10.043Z,240.00
2023-05-10T09:32:09.924Z,285.00
2023-05-10T09:33:09.920Z,347.00
2023-05-10T09:34:09.905Z,411.00
2023-05-10T09:35:09.913Z,469.00
2023-05-10T09:36:09.879Z,519.00
2023-05-10T09:37:09.888Z,608.00
2023-05-10T09:38:09.888Z,607.00
2023-05-10T09:39:09.878Z,678.00
2023-05-10T09:40:09.847Z,807.00
2023-05-10T09:41:09.830Z,943.00
2023-05-10T09:42:09.856Z,1058.00
2023-05-10T09:43:09.854Z,1543.00
2023-05-10T09:44:09.817Z,1269.00
2023-05-10T09:45:09.782Z,1600.00
2023-05-10T09:46:09.859Z,2220.00
2023-05-10T09:47:09.768Z,2240.00
2023-05-10T09:48:09.792Z,1665.00
2023-05-10T09:49:09.761Z,2029.00
2023-05-10T09:50:09.759Z,3450.00
2023-05-10T09:51:09.721Z,3713.00
2023-05-10T09:52:09.760Z,6350.00
2023-05-10T09:53:09.706Z,4108.00
2023-05-10T09:54:09.702Z,4059.00
2023-05-10T09:55:09.668Z,4778.00
2023-05-10T09:56:09.701Z,5895.00
2023-05-10T09:57:09.697Z,9502.00
2023-05-10T09:58:09.673Z,2888.00
2023-05-10T09:59:09.620Z,9108.00
2023-05-10T10:00:09.675Z,8380.00
2023-05-10T10:01:09.633Z,2697.00
2023-05-10T10:02:09.638Z,1444.00
2023-05-10T10:03:09.644Z,2787.00
2023-05-10T10:04:09.612Z,2669.00
2023-05-10T10:05:09.595Z,3631.00
2023-05-10T10:06:18.840Z,6594.00
2023-05-10T10:07:09.558Z,15358.00
2023-05-10T10:08:09.588Z,4339.00
2023-05-10T10:09:09.537Z,2561.00
2023-05-10T10:10:09.507Z,3582.00
2023-05-10T10:11:09.495Z,2534.00
2023-05-10T10:12:09.552Z,10585.00
2023-05-10T10:13:09.536Z,6846.00
2023-05-10T10:14:09.496Z,4560.00
2023-05-10T10:15:09.466Z,2391.00
2023-05-10T10:16:09.700Z,1457.00
2023-05-10T10:17:09.480Z,1451.00
2023-05-10T10:18:09.527Z,1941.00
2023-05-10T10:19:09.406Z,2330.00
2023-05-10T10:20:11.812Z,2940.00
2023-05-10T10:21:09.388Z,2952.00
2023-05-10T10:22:09.405Z,4470.00
2023-05-10T10:23:09.368Z,7253.00
2023-05-10T10:24:09.370Z,2057.00
2023-05-10T10:25:09.351Z,10826.00
2023-05-10T10:26:09.396Z,8741.00
2023-05-10T10:27:09.321Z,2335.00
2023-05-10T10:28:09.331Z,1749.00
2023-05-10T10:29:09.300Z,10553.00
2023-05-10T10:30:09.326Z,1725.00
2023-05-10T10:31:09.291Z,2074.00
2023-05-10T10:32:09.319Z,8114.00
2023-05-10T10:33:20.195Z,2189.00
2023-05-10T10:34:09.282Z,1101.00
2023-05-10T10:35:09.264Z,1069.00
2023-05-10T10:36:09.248Z,1561.00
2023-05-10T10:37:09.216Z,8608.00
2023-05-10T10:38:09.235Z,2881.00
2023-05-10T10:39:09.191Z,1550.00
2023-05-10T10:40:09.214Z,1380.00
2023-05-10T10:41:09.170Z,1771.00
2023-05-10T10:42:09.174Z,2826.00
2023-05-10T10:43:09.158Z,5647.00
2023-05-10T10:44:09.271Z,13703.00
2023-05-10T10:45:09.129Z,1971.00
2023-05-10T10:46:09.132Z,1762.00
2023-05-10T10:47:09.161Z,11704.00
2023-05-10T10:48:09.205Z,2229.00
2023-05-10T10:49:09.077Z,3237.00
2023-05-10T10:50:09.106Z,4110.00
2023-05-10T10:51:10.893Z,6986.00
2023-05-10T10:52:09.078Z,5265.00
2023-05-10T10:53:09.062Z,10718.00
2023-05-10T10:54:09.057Z,6243.00
2023-05-10T10:55:09.028Z,1822.00
2023-05-10T10:56:09.039Z,1537.00
2023-05-10T10:57:09.005Z,1187.00
2023-05-10T10:58:09.044Z,1004.00
2023-05-10T10:59:08.978Z,978.00
2023-05-10T11:00:09.006Z,859.00
2023-05-10T11:01:09.052Z,744.00
2023-05-10T11:02:09.054Z,621.00
2023-05-10T11:03:09.021Z,523.00
2023-05-10T11:04:08.981Z,452.00
2023-05-10T11:05:08.937Z,368.00
2023-05-10T11:06:08.938Z,334.00
2023-05-10T11:07:08.890Z,355.00
2023-05-10T11:08:08.890Z,376.00
2023-05-10T11:09:08.860Z,391.00
2023-05-10T11:10:08.874Z,353.00
2023-05-10T11:11:08.868Z,324.00
2023-05-10T11:12:08.865Z,347.00
2023-05-10T11:13:08.820Z,356.00
2023-05-10T11:14:08.852Z,339.00
2023-05-10T11:15:08.803Z,335.00
2023-05-10T11:16:08.852Z,369.00
2023-05-10T11:17:08.930Z,418.00
2023-05-10T11:18:08.835Z,499.00
2023-05-10T11:19:08.932Z,534.00
2023-05-10T11:20:08.775Z,514.00
2023-05-10T11:21:08.731Z,449.00
2023-05-10T11:22:08.750Z,448.00
2023-05-10T11:23:08.710Z,429.00
2023-05-10T11:24:08.732Z,445.00
2023-05-10T11:25:08.696Z,430.00
2023-05-10T11:26:08.721Z,426.00
2023-05-10T11:27:08.677Z,488.00
2023-05-10T11:28:08.689Z,551.00
2023-05-10T11:29:08.653Z,539.00
2023-05-10T11:30:08.697Z,467.00
2023-05-10T11:31:08.633Z,482.00
2023-05-10T11:32:08.641Z,510.00
2023-05-10T11:33:08.631Z,468.00
2023-05-10T11:34:08.605Z,448.00
2023-05-10T11:35:08.577Z,426.00
2023-05-10T11:36:08.586Z,432.00
2023-05-10T11:37:08.569Z,460.00
2023-05-10T11:38:08.578Z,496.00
2023-05-10T11:39:08.545Z,542.00
2023-05-10T11:40:08.569Z,570.00
2023-05-10T11:41:08.513Z,547.00
2023-05-10T11:42:08.901Z,544.00
2023-05-10T11:43:08.504Z,526.00
2023-05-10T11:44:08.516Z,518.00
2023-05-10T11:45:08.474Z,514.00
2023-05-10T11:46:08.556Z,496.00
2023-05-10T11:47:08.463Z,475.00
2023-05-10T11:48:08.512Z,465.00
2023-05-10T11:49:08.432Z,486.00
2023-05-10T11:50:08.450Z,483.00
2023-05-10T11:51:08.405Z,459.00
2023-05-10T11:52:08.440Z,481.00
2023-05-10T11:53:08.397Z,510.00
2023-05-10T11:54:08.404Z,547.00
2023-05-10T11:55:08.387Z,595.00
2023-05-10T11:56:08.390Z,659.00
2023-05-10T11:57:08.349Z,728.00
2023-05-10T11:58:08.352Z,793.00
2023-05-10T11:59:08.313Z,856.00
2023-05-10T12:00:08.356Z,988.00
2023-05-10T12:01:08.298Z,1194.00
2023-05-10T12:02:08.315Z,1164.00
2023-05-10T12:03:08.448Z,1200.00
2023-05-10T12:04:08.413Z,1196.00
2023-05-10T12:05:08.356Z,1159.00
2023-05-10T12:06:08.260Z,1158.00
2023-05-10T12:07:08.235Z,1207.00
2023-05-10T12:08:08.256Z,1167.00
2023-05-10T12:09:08.211Z,1081.00
2023-05-10T12:10:08.217Z,992.00
2023-05-10T12:11:08.205Z,931.00
2023-05-10T12:12:08.316Z,895.00
2023-05-10T12:13:08.180Z,864.00
2023-05-10T12:14:08.169Z,855.00
2023-05-10T12:15:08.142Z,831.00
2023-05-10T12:16:08.183Z,792.00
2023-05-10T12:17:08.128Z,721.00
2023-05-10T12:18:08.147Z,654.00
2023-05-10T12:19:08.283Z,621.00
2023-05-10T12:20:08.131Z,656.00
2023-05-10T12:21:08.084Z,691.00
2023-05-10T12:22:08.085Z,693.00
2023-05-10T12:23:08.057Z,656.00
2023-05-10T12:24:08.135Z,640.00
2023-05-10T12:25:08.036Z,629.00
2023-05-10T12:26:08.052Z,629.00
2023-05-10T12:27:08.109Z,668.00
2023-05-10T12:28:08.023Z,685.00
2023-05-10T12:29:07.993Z,686.00
2023-05-10T12:30:08.009Z,673.00
2023-05-10T12:31:07.999Z,682.00
2023-05-10T12:32:08.095Z,680.00
2023-05-10T12:33:08.001Z,626.00
2023-05-10T12:34:07.953Z,649.00
2023-05-10T12:35:07.926Z,724.00
2023-05-10T12:36:07.944Z,727.00
2023-05-10T12:37:07.927Z,811.00
2023-05-10T12:38:07.935Z,852.00
2023-05-10T12:39:07.883Z,1180.00
2023-05-10T12:40:07.905Z,1028.00
2023-05-10T12:41:07.922Z,979.00